sensor_id;sensor_type;location;lat;lon;timestamp;P1;durP1;ratioP1;P2;durP2;ratioP2
419;SDS011;42600;54.408;13.016;2023-06-24T00:01:34;9.07;;;3.77;;
419;SDS011;42600;54.408;13.016;2023-06-24T00:04:00;3.90;;;2.10;;
419;SDS011;42600;54.408;13.016;2023-06-24T00:06:27;11.93;;;2.70;;
419;SDS011;42600;54.408;13.016;2023-06-24T00:08:53;10.77;;;4.00;;
419;SDS011;42600;54.408;13.016;2023-06-24T00:11:25;5.37;;;2.50;;
419;SDS011;42600;54.408;13.016;2023-06-24T00:13:53;6.27;;;2.63;;
419;SDS011;42600;54.408;13.016;2023-06-24T00:16:21;8.90;;;3.93;;
419;SDS011;42600;54.408;13.016;2023-06-24T00:18:52;8.07;;;3.37;;
419;SDS011;42600;54.408;13.016;2023-06-24T00:21:19;10.53;;;4.17;;
419;SDS011;42600;54.408;13.016;2023-06-24T00:23:47;5.00;;;2.90;;
419;SDS011;42600;54.408;13.016;2023-06-24T00:26:14;8.30;;;3.67;;
419;SDS011;42600;54.408;13.016;2023-06-24T00:28:41;8.40;;;3.37;;
419;SDS011;42600;54.408;13.016;2023-06-24T00:31:08;6.33;;;2.30;;
419;SDS011;42600;54.408;13.016;2023-06-24T00:33:37;6.33;;;3.43;;
419;SDS011;42600;54.408;13.016;2023-06-24T00:36:04;4.97;;;2.83;;
419;SDS011;42600;54.408;13.016;2023-06-24T00:38:33;4.93;;;3.17;;
419;SDS011;42600;54.408;13.016;2023-06-24T00:40:59;7.03;;;2.07;;
419;SDS011;42600;54.408;13.016;2023-06-24T00:43:27;5.20;;;2.63;;
419;SDS011;42600;54.408;13.016;2023-06-24T00:45:54;8.03;;;3.20;;
419;SDS011;42600;54.408;13.016;2023-06-24T00:48:21;6.43;;;3.10;;
419;SDS011;42600;54.408;13.016;2023-06-24T00:50:49;3.33;;;2.60;;
419;SDS011;42600;54.408;13.016;2023-06-24T00:53:15;4.93;;;2.40;;
419;SDS011;42600;54.408;13.016;2023-06-24T00:55:42;5.33;;;3.33;;
419;SDS011;42600;54.408;13.016;2023-06-24T00:58:10;5.53;;;2.37;;
419;SDS011;42600;54.408;13.016;2023-06-24T01:00:40;5.60;;;2.60;;
419;SDS011;42600;54.408;13.016;2023-06-24T01:03:09;5.83;;;2.97;;
419;SDS011;42600;54.408;13.016;2023-06-24T01:05:39;8.17;;;3.13;;
419;SDS011;42600;54.408;13.016;2023-06-24T01:08:07;4.87;;;3.07;;
419;SDS011;42600;54.408;13.016;2023-06-24T01:10:34;18.73;;;3.20;;
419;SDS011;42600;54.408;13.016;2023-06-24T01:13:01;12.73;;;2.20;;
419;SDS011;42600;54.408;13.016;2023-06-24T01:15:27;7.80;;;2.90;;
419;SDS011;42600;54.408;13.016;2023-06-24T01:17:55;6.03;;;3.20;;
419;SDS011;42600;54.408;13.016;2023-06-24T01:20:29;5.07;;;2.30;;
419;SDS011;42600;54.408;13.016;2023-06-24T01:23:15;5.97;;;2.60;;
419;SDS011;42600;54.408;13.016;2023-06-24T01:25:58;10.00;;;2.73;;
419;SDS011;42600;54.408;13.016;2023-06-24T01:28:49;6.20;;;2.10;;
419;SDS011;42600;54.408;13.016;2023-06-24T01:31:35;4.80;;;2.60;;
419;SDS011;42600;54.408;13.016;2023-06-24T01:34:08;11.70;;;2.67;;
419;SDS011;42600;54.408;13.016;2023-06-24T01:36:42;8.30;;;3.33;;
419;SDS011;42600;54.408;13.016;2023-06-24T01:39:25;6.73;;;3.93;;
419;SDS011;42600;54.408;13.016;2023-06-24T01:41:56;8.90;;;2.70;;
419;SDS011;42600;54.408;13.016;2023-06-24T01:44:26;8.40;;;3.20;;
419;SDS011;42600;54.408;13.016;2023-06-24T01:46:57;11.07;;;2.60;;
419;SDS011;42600;54.408;13.016;2023-06-24T01:49:26;3.77;;;1.80;;
419;SDS011;42600;54.408;13.016;2023-06-24T01:51:55;6.40;;;2.70;;
419;SDS011;42600;54.408;13.016;2023-06-24T01:54:25;9.73;;;2.13;;
419;SDS011;42600;54.408;13.016;2023-06-24T01:56:54;5.20;;;2.60;;
419;SDS011;42600;54.408;13.016;2023-06-24T01:59:23;5.73;;;2.53;;
419;SDS011;42600;54.408;13.016;2023-06-24T02:01:54;8.73;;;3.20;;
419;SDS011;42600;54.408;13.016;2023-06-24T02:04:22;8.20;;;2.90;;
419;SDS011;42600;54.408;13.016;2023-06-24T02:06:50;5.47;;;2.70;;
419;SDS011;42600;54.408;13.016;2023-06-24T02:09:18;9.13;;;3.53;;
419;SDS011;42600;54.408;13.016;2023-06-24T02:11:46;9.13;;;3.90;;
419;SDS011;42600;54.408;13.016;2023-06-24T02:14:14;6.57;;;2.90;;
419;SDS011;42600;54.408;13.016;2023-06-24T02:16:43;15.90;;;3.20;;
419;SDS011;42600;54.408;13.016;2023-06-24T02:19:11;5.50;;;2.30;;
419;SDS011;42600;54.408;13.016;2023-06-24T02:21:39;7.30;;;2.63;;
419;SDS011;42600;54.408;13.016;2023-06-24T02:24:07;6.47;;;3.40;;
419;SDS011;42600;54.408;13.016;2023-06-24T02:26:34;8.83;;;4.53;;
419;SDS011;42600;54.408;13.016;2023-06-24T02:29:05;8.33;;;3.00;;
419;SDS011;42600;54.408;13.016;2023-06-24T02:31:34;7.03;;;3.17;;
419;SDS011;42600;54.408;13.016;2023-06-24T02:34:00;9.83;;;3.30;;
419;SDS011;42600;54.408;13.016;2023-06-24T02:36:27;7.90;;;2.57;;
419;SDS011;42600;54.408;13.016;2023-06-24T02:38:55;6.23;;;3.33;;
419;SDS011;42600;54.408;13.016;2023-06-24T02:41:22;10.03;;;4.40;;
419;SDS011;42600;54.408;13.016;2023-06-24T02:43:48;15.77;;;3.17;;
419;SDS011;42600;54.408;13.016;2023-06-24T02:46:15;8.63;;;3.73;;
419;SDS011;42600;54.408;13.016;2023-06-24T02:48:42;12.47;;;6.43;;
419;SDS011;42600;54.408;13.016;2023-06-24T02:51:11;8.37;;;3.77;;
419;SDS011;42600;54.408;13.016;2023-06-24T02:53:38;8.50;;;3.13;;
419;SDS011;42600;54.408;13.016;2023-06-24T02:56:07;9.17;;;3.47;;
419;SDS011;42600;54.408;13.016;2023-06-24T02:58:35;9.77;;;3.80;;
419;SDS011;42600;54.408;13.016;2023-06-24T03:01:03;4.87;;;2.83;;
419;SDS011;42600;54.408;13.016;2023-06-24T03:03:32;5.83;;;2.90;;
419;SDS011;42600;54.408;13.016;2023-06-24T03:05:58;10.13;;;3.47;;
419;SDS011;42600;54.408;13.016;2023-06-24T03:08:27;9.20;;;4.10;;
419;SDS011;42600;54.408;13.016;2023-06-24T03:10:54;10.63;;;3.83;;
419;SDS011;42600;54.408;13.016;2023-06-24T03:13:23;11.40;;;3.90;;
419;SDS011;42600;54.408;13.016;2023-06-24T03:15:50;5.47;;;2.80;;
419;SDS011;42600;54.408;13.016;2023-06-24T03:18:17;10.83;;;6.13;;
419;SDS011;42600;54.408;13.016;2023-06-24T03:20:43;12.83;;;4.97;;
419;SDS011;42600;54.408;13.016;2023-06-24T03:23:10;5.87;;;2.60;;
419;SDS011;42600;54.408;13.016;2023-06-24T03:25:37;7.10;;;3.60;;
419;SDS011;42600;54.408;13.016;2023-06-24T03:28:03;7.57;;;3.27;;
419;SDS011;42600;54.408;13.016;2023-06-24T03:30:33;10.27;;;4.47;;
419;SDS011;42600;54.408;13.016;2023-06-24T03:33:00;8.00;;;4.93;;
419;SDS011;42600;54.408;13.016;2023-06-24T03:35:27;12.40;;;4.63;;
419;SDS011;42600;54.408;13.016;2023-06-24T03:37:54;6.67;;;2.63;;
419;SDS011;42600;54.408;13.016;2023-06-24T03:40:21;5.77;;;3.60;;
419;SDS011;42600;54.408;13.016;2023-06-24T03:42:47;10.40;;;3.90;;
419;SDS011;42600;54.408;13.016;2023-06-24T03:45:14;8.57;;;3.90;;
419;SDS011;42600;54.408;13.016;2023-06-24T03:47:42;10.30;;;4.70;;
419;SDS011;42600;54.408;13.016;2023-06-24T03:50:09;12.97;;;5.53;;
419;SDS011;42600;54.408;13.016;2023-06-24T03:52:36;13.67;;;4.10;;
419;SDS011;42600;54.408;13.016;2023-06-24T03:55:02;10.57;;;3.90;;
419;SDS011;42600;54.408;13.016;2023-06-24T03:57:30;8.60;;;3.60;;
419;SDS011;42600;54.408;13.016;2023-06-24T03:59:57;9.83;;;3.70;;
419;SDS011;42600;54.408;13.016;2023-06-24T04:02:23;6.50;;;2.80;;
419;SDS011;42600;54.408;13.016;2023-06-24T04:04:53;7.03;;;3.40;;
419;SDS011;42600;54.408;13.016;2023-06-24T04:07:21;6.53;;;3.70;;
419;SDS011;42600;54.408;13.016;2023-06-24T04:09:53;11.53;;;3.93;;
419;SDS011;42600;54.408;13.016;2023-06-24T04:12:21;11.00;;;4.20;;
419;SDS011;42600;54.408;13.016;2023-06-24T04:14:48;11.80;;;3.90;;
419;SDS011;42600;54.408;13.016;2023-06-24T04:17:15;13.67;;;4.87;;
419;SDS011;42600;54.408;13.016;2023-06-24T04:19:41;14.63;;;5.13;;
419;SDS011;42600;54.408;13.016;2023-06-24T04:22:09;6.83;;;2.90;;
419;SDS011;42600;54.408;13.016;2023-06-24T04:24:36;8.10;;;3.93;;
419;SDS011;42600;54.408;13.016;2023-06-24T04:27:03;13.20;;;3.47;;
419;SDS011;42600;54.408;13.016;2023-06-24T04:29:30;7.70;;;3.30;;
419;SDS011;42600;54.408;13.016;2023-06-24T04:31:56;8.97;;;4.57;;
419;SDS011;42600;54.408;13.016;2023-06-24T04:34:23;7.27;;;2.87;;
419;SDS011;42600;54.408;13.016;2023-06-24T04:36:49;9.70;;;4.10;;
419;SDS011;42600;54.408;13.016;2023-06-24T04:39:17;7.23;;;3.50;;
419;SDS011;42600;54.408;13.016;2023-06-24T04:41:44;21.53;;;4.43;;
419;SDS011;42600;54.408;13.016;2023-06-24T04:44:11;12.50;;;4.00;;
419;SDS011;42600;54.408;13.016;2023-06-24T04:46:37;8.80;;;3.47;;
419;SDS011;42600;54.408;13.016;2023-06-24T04:49:05;8.67;;;3.20;;
419;SDS011;42600;54.408;13.016;2023-06-24T04:51:31;9.13;;;4.90;;
419;SDS011;42600;54.408;13.016;2023-06-24T04:53:58;7.13;;;3.60;;
419;SDS011;42600;54.408;13.016;2023-06-24T04:56:27;14.73;;;4.73;;
419;SDS011;42600;54.408;13.016;2023-06-24T04:58:53;10.70;;;4.43;;
419;SDS011;42600;54.408;13.016;2023-06-24T05:01:20;10.50;;;4.03;;
419;SDS011;42600;54.408;13.016;2023-06-24T05:03:47;11.50;;;4.40;;
419;SDS011;42600;54.408;13.016;2023-06-24T05:06:14;9.70;;;3.13;;
419;SDS011;42600;54.408;13.016;2023-06-24T05:08:40;8.10;;;3.50;;
419;SDS011;42600;54.408;13.016;2023-06-24T05:11:07;14.70;;;3.57;;
419;SDS011;42600;54.408;13.016;2023-06-24T05:13:35;12.40;;;5.00;;
419;SDS011;42600;54.408;13.016;2023-06-24T05:16:01;7.30;;;3.60;;
419;SDS011;42600;54.408;13.016;2023-06-24T05:18:28;9.93;;;3.70;;
419;SDS011;42600;54.408;13.016;2023-06-24T05:20:54;11.80;;;6.30;;
419;SDS011;42600;54.408;13.016;2023-06-24T05:23:21;9.47;;;3.77;;
419;SDS011;42600;54.408;13.016;2023-06-24T05:25:48;8.03;;;3.40;;
419;SDS011;42600;54.408;13.016;2023-06-24T05:28:14;7.97;;;3.23;;
419;SDS011;42600;54.408;13.016;2023-06-24T05:30:44;5.87;;;3.50;;
419;SDS011;42600;54.408;13.016;2023-06-24T05:33:10;8.60;;;3.80;;
419;SDS011;42600;54.408;13.016;2023-06-24T05:35:37;12.07;;;4.53;;
419;SDS011;42600;54.408;13.016;2023-06-24T05:38:05;13.90;;;3.97;;
419;SDS011;42600;54.408;13.016;2023-06-24T05:40:32;8.40;;;3.87;;
419;SDS011;42600;54.408;13.016;2023-06-24T05:42:58;11.90;;;4.10;;
419;SDS011;42600;54.408;13.016;2023-06-24T05:45:25;10.70;;;3.53;;
419;SDS011;42600;54.408;13.016;2023-06-24T05:47:53;8.60;;;3.80;;
419;SDS011;42600;54.408;13.016;2023-06-24T05:50:20;6.33;;;3.10;;
419;SDS011;42600;54.408;13.016;2023-06-24T05:52:46;6.80;;;3.20;;
419;SDS011;42600;54.408;13.016;2023-06-24T05:55:13;12.30;;;6.00;;
419;SDS011;42600;54.408;13.016;2023-06-24T05:57:39;7.20;;;3.40;;
419;SDS011;42600;54.408;13.016;2023-06-24T06:00:06;8.60;;;3.90;;
419;SDS011;42600;54.408;13.016;2023-06-24T06:02:34;7.50;;;3.00;;
419;SDS011;42600;54.408;13.016;2023-06-24T06:05:02;13.53;;;4.50;;
419;SDS011;42600;54.408;13.016;2023-06-24T06:07:29;11.73;;;4.43;;
419;SDS011;42600;54.408;13.016;2023-06-24T06:09:56;6.40;;;4.57;;
419;SDS011;42600;54.408;13.016;2023-06-24T06:12:22;11.63;;;4.50;;
419;SDS011;42600;54.408;13.016;2023-06-24T06:14:49;8.17;;;2.63;;
419;SDS011;42600;54.408;13.016;2023-06-24T06:17:15;6.70;;;3.43;;
419;SDS011;42600;54.408;13.016;2023-06-24T06:19:42;10.50;;;4.40;;
419;SDS011;42600;54.408;13.016;2023-06-24T06:22:13;9.13;;;4.40;;
419;SDS011;42600;54.408;13.016;2023-06-24T06:24:40;6.73;;;3.57;;
419;SDS011;42600;54.408;13.016;2023-06-24T06:27:09;5.93;;;2.97;;
419;SDS011;42600;54.408;13.016;2023-06-24T06:29:35;11.03;;;3.50;;
419;SDS011;42600;54.408;13.016;2023-06-24T06:32:02;5.10;;;3.23;;
419;SDS011;42600;54.408;13.016;2023-06-24T06:34:29;14.13;;;3.93;;
419;SDS011;42600;54.408;13.016;2023-06-24T06:36:56;10.73;;;3.50;;
419;SDS011;42600;54.408;13.016;2023-06-24T06:39:24;6.20;;;3.60;;
419;SDS011;42600;54.408;13.016;2023-06-24T06:41:50;10.63;;;4.37;;
419;SDS011;42600;54.408;13.016;2023-06-24T06:44:17;8.33;;;3.47;;
419;SDS011;42600;54.408;13.016;2023-06-24T06:46:43;11.00;;;3.90;;
419;SDS011;42600;54.408;13.016;2023-06-24T06:49:10;7.40;;;2.80;;
419;SDS011;42600;54.408;13.016;2023-06-24T06:51:36;12.50;;;3.87;;
419;SDS011;42600;54.408;13.016;2023-06-24T06:54:03;7.43;;;3.30;;
419;SDS011;42600;54.408;13.016;2023-06-24T06:56:31;9.27;;;3.50;;
419;SDS011;42600;54.408;13.016;2023-06-24T06:58:57;9.90;;;3.53;;
419;SDS011;42600;54.408;13.016;2023-06-24T07:01:24;7.47;;;3.33;;
419;SDS011;42600;54.408;13.016;2023-06-24T07:03:50;7.03;;;2.83;;
419;SDS011;42600;54.408;13.016;2023-06-24T07:06:17;12.67;;;4.60;;
419;SDS011;42600;54.408;13.016;2023-06-24T07:08:44;8.70;;;4.03;;
419;SDS011;42600;54.408;13.016;2023-06-24T07:11:10;6.93;;;3.07;;
419;SDS011;42600;54.408;13.016;2023-06-24T07:13:38;6.73;;;3.87;;
419;SDS011;42600;54.408;13.016;2023-06-24T07:16:05;6.60;;;3.17;;
419;SDS011;42600;54.408;13.016;2023-06-24T07:18:31;7.10;;;3.37;;
419;SDS011;42600;54.408;13.016;2023-06-24T07:20:59;6.60;;;3.90;;
419;SDS011;42600;54.408;13.016;2023-06-24T07:23:26;9.37;;;4.00;;
419;SDS011;42600;54.408;13.016;2023-06-24T07:25:52;8.40;;;3.33;;
419;SDS011;42600;54.408;13.016;2023-06-24T07:28:19;13.03;;;3.20;;
419;SDS011;42600;54.408;13.016;2023-06-24T07:30:47;6.07;;;2.50;;
419;SDS011;42600;54.408;13.016;2023-06-24T07:33:14;11.87;;;4.57;;
419;SDS011;42600;54.408;13.016;2023-06-24T07:35:40;7.30;;;3.70;;
419;SDS011;42600;54.408;13.016;2023-06-24T07:38:07;10.30;;;2.67;;
419;SDS011;42600;54.408;13.016;2023-06-24T07:40:33;11.50;;;4.33;;
419;SDS011;42600;54.408;13.016;2023-06-24T07:43:00;7.23;;;3.47;;
419;SDS011;42600;54.408;13.016;2023-06-24T07:45:26;9.80;;;3.87;;
419;SDS011;42600;54.408;13.016;2023-06-24T07:47:54;8.50;;;3.30;;
419;SDS011;42600;54.408;13.016;2023-06-24T07:50:21;9.50;;;3.40;;
419;SDS011;42600;54.408;13.016;2023-06-24T07:52:48;5.43;;;3.03;;
419;SDS011;42600;54.408;13.016;2023-06-24T07:55:14;6.67;;;3.40;;
419;SDS011;42600;54.408;13.016;2023-06-24T07:57:44;12.00;;;3.87;;
419;SDS011;42600;54.408;13.016;2023-06-24T08:00:11;9.60;;;3.20;;
419;SDS011;42600;54.408;13.016;2023-06-24T08:02:38;7.17;;;3.57;;
419;SDS011;42600;54.408;13.016;2023-06-24T08:05:07;14.80;;;3.80;;
419;SDS011;42600;54.408;13.016;2023-06-24T08:07:34;9.23;;;3.87;;
419;SDS011;42600;54.408;13.016;2023-06-24T08:10:01;6.93;;;3.37;;
419;SDS011;42600;54.408;13.016;2023-06-24T08:12:28;10.87;;;4.67;;
419;SDS011;42600;54.408;13.016;2023-06-24T08:14:55;7.67;;;4.00;;
419;SDS011;42600;54.408;13.016;2023-06-24T08:17:21;7.63;;;3.17;;
419;SDS011;42600;54.408;13.016;2023-06-24T08:19:48;23.83;;;4.57;;
419;SDS011;42600;54.408;13.016;2023-06-24T08:22:16;8.27;;;3.77;;
419;SDS011;42600;54.408;13.016;2023-06-24T08:24:42;7.10;;;4.33;;
419;SDS011;42600;54.408;13.016;2023-06-24T08:27:09;5.77;;;2.70;;
419;SDS011;42600;54.408;13.016;2023-06-24T08:29:36;9.70;;;3.50;;
419;SDS011;42600;54.408;13.016;2023-06-24T08:32:03;11.90;;;3.90;;
419;SDS011;42600;54.408;13.016;2023-06-24T08:34:31;6.13;;;2.60;;
419;SDS011;42600;54.408;13.016;2023-06-24T08:36:58;6.33;;;3.27;;
419;SDS011;42600;54.408;13.016;2023-06-24T08:39:26;9.00;;;3.77;;
419;SDS011;42600;54.408;13.016;2023-06-24T08:41:52;12.27;;;3.70;;
419;SDS011;42600;54.408;13.016;2023-06-24T08:44:19;6.70;;;2.20;;
419;SDS011;42600;54.408;13.016;2023-06-24T08:46:45;6.63;;;3.97;;
419;SDS011;42600;54.408;13.016;2023-06-24T08:49:16;8.30;;;3.90;;
419;SDS011;42600;54.408;13.016;2023-06-24T08:51:48;6.07;;;3.23;;
419;SDS011;42600;54.408;13.016;2023-06-24T08:54:20;7.20;;;3.37;;
419;SDS011;42600;54.408;13.016;2023-06-24T08:56:50;7.03;;;2.87;;
419;SDS011;42600;54.408;13.016;2023-06-24T08:59:17;5.67;;;4.03;;
419;SDS011;42600;54.408;13.016;2023-06-24T09:01:45;10.17;;;3.77;;
419;SDS011;42600;54.408;13.016;2023-06-24T09:04:12;6.40;;;2.73;;
419;SDS011;42600;54.408;13.016;2023-06-24T09:06:38;5.73;;;2.73;;
419;SDS011;42600;54.408;13.016;2023-06-24T09:09:05;4.23;;;2.83;;
419;SDS011;42600;54.408;13.016;2023-06-24T09:11:45;10.30;;;4.43;;
419;SDS011;42600;54.408;13.016;2023-06-24T09:14:19;13.23;;;3.67;;
419;SDS011;42600;54.408;13.016;2023-06-24T09:16:50;8.87;;;4.13;;
419;SDS011;42600;54.408;13.016;2023-06-24T09:19:19;8.20;;;4.47;;
419;SDS011;42600;54.408;13.016;2023-06-24T09:21:47;8.97;;;3.10;;
419;SDS011;42600;54.408;13.016;2023-06-24T09:24:13;8.60;;;2.83;;
419;SDS011;42600;54.408;13.016;2023-06-24T09:26:41;5.50;;;3.17;;
419;SDS011;42600;54.408;13.016;2023-06-24T09:29:11;4.30;;;2.43;;
419;SDS011;42600;54.408;13.016;2023-06-24T09:31:45;5.97;;;2.83;;
419;SDS011;42600;54.408;13.016;2023-06-24T09:34:13;11.30;;;3.47;;
419;SDS011;42600;54.408;13.016;2023-06-24T09:36:41;9.10;;;2.90;;
419;SDS011;42600;54.408;13.016;2023-06-24T09:39:09;9.30;;;4.33;;
419;SDS011;42600;54.408;13.016;2023-06-24T09:41:35;6.13;;;2.33;;
419;SDS011;42600;54.408;13.016;2023-06-24T09:44:02;7.57;;;3.53;;
419;SDS011;42600;54.408;13.016;2023-06-24T09:46:36;5.03;;;2.70;;
419;SDS011;42600;54.408;13.016;2023-06-24T09:49:03;7.67;;;3.57;;
419;SDS011;42600;54.408;13.016;2023-06-24T09:51:30;6.47;;;3.10;;
419;SDS011;42600;54.408;13.016;2023-06-24T09:53:59;7.43;;;2.97;;
419;SDS011;42600;54.408;13.016;2023-06-24T09:56:26;7.63;;;3.30;;
419;SDS011;42600;54.408;13.016;2023-06-24T09:58:53;6.70;;;2.40;;
419;SDS011;42600;54.408;13.016;2023-06-24T10:01:20;6.77;;;2.90;;
419;SDS011;42600;54.408;13.016;2023-06-24T10:03:48;6.43;;;3.20;;
419;SDS011;42600;54.408;13.016;2023-06-24T10:06:15;5.27;;;2.80;;
419;SDS011;42600;54.408;13.016;2023-06-24T10:08:42;6.20;;;2.47;;
419;SDS011;42600;54.408;13.016;2023-06-24T10:11:09;5.17;;;2.40;;
419;SDS011;42600;54.408;13.016;2023-06-24T10:13:35;5.57;;;2.90;;
419;SDS011;42600;54.408;13.016;2023-06-24T10:16:02;4.93;;;3.07;;
419;SDS011;42600;54.408;13.016;2023-06-24T10:18:32;4.93;;;2.27;;
419;SDS011;42600;54.408;13.016;2023-06-24T10:21:02;5.57;;;2.50;;
419;SDS011;42600;54.408;13.016;2023-06-24T10:23:33;6.00;;;2.43;;
419;SDS011;42600;54.408;13.016;2023-06-24T10:26:07;7.00;;;2.17;;
419;SDS011;42600;54.408;13.016;2023-06-24T10:31:52;2.87;;;1.80;;
419;SDS011;42600;54.408;13.016;2023-06-24T10:34:22;3.83;;;1.77;;
419;SDS011;42600;54.408;13.016;2023-06-24T10:36:54;3.60;;;1.63;;
419;SDS011;42600;54.408;13.016;2023-06-24T10:39:37;4.70;;;2.20;;
419;SDS011;42600;54.408;13.016;2023-06-24T10:45:12;2.80;;;1.80;;
419;SDS011;42600;54.408;13.016;2023-06-24T10:47:41;4.50;;;1.97;;
419;SDS011;42600;54.408;13.016;2023-06-24T10:50:09;4.10;;;2.40;;
419;SDS011;42600;54.408;13.016;2023-06-24T10:52:38;4.23;;;2.57;;
419;SDS011;42600;54.408;13.016;2023-06-24T10:55:06;3.17;;;1.63;;
419;SDS011;42600;54.408;13.016;2023-06-24T10:57:33;8.20;;;1.73;;
419;SDS011;42600;54.408;13.016;2023-06-24T11:00:00;3.60;;;1.60;;
419;SDS011;42600;54.408;13.016;2023-06-24T11:02:28;2.30;;;1.30;;
419;SDS011;42600;54.408;13.016;2023-06-24T11:04:55;3.90;;;1.93;;
419;SDS011;42600;54.408;13.016;2023-06-24T11:07:23;3.07;;;1.50;;
419;SDS011;42600;54.408;13.016;2023-06-24T11:09:52;4.90;;;1.50;;
419;SDS011;42600;54.408;13.016;2023-06-24T11:12:19;4.30;;;1.83;;
419;SDS011;42600;54.408;13.016;2023-06-24T11:14:50;2.73;;;1.60;;
419;SDS011;42600;54.408;13.016;2023-06-24T11:17:16;2.70;;;2.00;;
419;SDS011;42600;54.408;13.016;2023-06-24T11:19:45;4.10;;;1.93;;
419;SDS011;42600;54.408;13.016;2023-06-24T11:22:11;3.83;;;1.37;;
419;SDS011;42600;54.408;13.016;2023-06-24T11:24:38;4.57;;;1.80;;
419;SDS011;42600;54.408;13.016;2023-06-24T11:27:07;3.90;;;1.93;;
419;SDS011;42600;54.408;13.016;2023-06-24T11:29:34;3.00;;;1.57;;
419;SDS011;42600;54.408;13.016;2023-06-24T11:32:01;2.80;;;1.30;;
419;SDS011;42600;54.408;13.016;2023-06-24T11:34:29;3.50;;;1.60;;
419;SDS011;42600;54.408;13.016;2023-06-24T11:36:56;2.97;;;1.90;;
419;SDS011;42600;54.408;13.016;2023-06-24T11:39:23;3.47;;;1.80;;
419;SDS011;42600;54.408;13.016;2023-06-24T11:41:50;6.87;;;2.13;;
419;SDS011;42600;54.408;13.016;2023-06-24T11:44:19;3.70;;;1.50;;
419;SDS011;42600;54.408;13.016;2023-06-24T11:46:46;3.53;;;2.00;;
419;SDS011;42600;54.408;13.016;2023-06-24T11:49:13;2.53;;;1.10;;
419;SDS011;42600;54.408;13.016;2023-06-24T11:51:45;3.90;;;1.57;;
419;SDS011;42600;54.408;13.016;2023-06-24T11:54:14;4.07;;;1.50;;
419;SDS011;42600;54.408;13.016;2023-06-24T11:56:41;3.57;;;1.67;;
419;SDS011;42600;54.408;13.016;2023-06-24T11:59:15;2.77;;;1.33;;
419;SDS011;42600;54.408;13.016;2023-06-24T12:01:44;2.87;;;1.30;;
419;SDS011;42600;54.408;13.016;2023-06-24T12:04:12;10.23;;;1.47;;
419;SDS011;42600;54.408;13.016;2023-06-24T12:06:39;6.20;;;1.53;;
419;SDS011;42600;54.408;13.016;2023-06-24T12:09:06;3.43;;;1.43;;
419;SDS011;42600;54.408;13.016;2023-06-24T12:11:33;9.30;;;3.73;;
419;SDS011;42600;54.408;13.016;2023-06-24T12:13:59;4.77;;;2.47;;
419;SDS011;42600;54.408;13.016;2023-06-24T12:16:26;5.20;;;2.03;;
419;SDS011;42600;54.408;13.016;2023-06-24T12:18:54;6.90;;;2.27;;
419;SDS011;42600;54.408;13.016;2023-06-24T12:21:21;3.37;;;1.70;;
419;SDS011;42600;54.408;13.016;2023-06-24T12:23:47;3.07;;;1.53;;
419;SDS011;42600;54.408;13.016;2023-06-24T12:26:14;3.87;;;1.93;;
419;SDS011;42600;54.408;13.016;2023-06-24T12:28:41;6.20;;;2.23;;
419;SDS011;42600;54.408;13.016;2023-06-24T12:31:07;6.73;;;2.00;;
419;SDS011;42600;54.408;13.016;2023-06-24T12:33:34;3.60;;;1.57;;
419;SDS011;42600;54.408;13.016;2023-06-24T12:36:02;3.20;;;1.53;;
419;SDS011;42600;54.408;13.016;2023-06-24T12:38:29;2.20;;;1.03;;
419;SDS011;42600;54.408;13.016;2023-06-24T12:40:56;2.07;;;1.37;;
419;SDS011;42600;54.408;13.016;2023-06-24T12:43:23;3.10;;;1.43;;
419;SDS011;42600;54.408;13.016;2023-06-24T12:45:49;2.40;;;1.37;;
419;SDS011;42600;54.408;13.016;2023-06-24T12:48:16;3.07;;;1.80;;
419;SDS011;42600;54.408;13.016;2023-06-24T12:50:43;2.67;;;1.10;;
419;SDS011;42600;54.408;13.016;2023-06-24T12:53:11;3.57;;;1.50;;
419;SDS011;42600;54.408;13.016;2023-06-24T12:55:39;4.97;;;1.13;;
419;SDS011;42600;54.408;13.016;2023-06-24T12:58:05;3.63;;;1.63;;
419;SDS011;42600;54.408;13.016;2023-06-24T13:00:32;2.90;;;1.60;;
419;SDS011;42600;54.408;13.016;2023-06-24T13:02:58;4.17;;;1.47;;
419;SDS011;42600;54.408;13.016;2023-06-24T13:05:25;5.17;;;1.83;;
419;SDS011;42600;54.408;13.016;2023-06-24T13:07:52;7.30;;;1.83;;
419;SDS011;42600;54.408;13.016;2023-06-24T13:10:20;4.83;;;2.40;;
419;SDS011;42600;54.408;13.016;2023-06-24T13:12:47;4.13;;;1.40;;
419;SDS011;42600;54.408;13.016;2023-06-24T13:15:13;6.40;;;2.00;;
419;SDS011;42600;54.408;13.016;2023-06-24T13:17:40;9.77;;;1.50;;
419;SDS011;42600;54.408;13.016;2023-06-24T13:20:07;3.50;;;1.60;;
419;SDS011;42600;54.408;13.016;2023-06-24T13:22:34;6.80;;;2.07;;
419;SDS011;42600;54.408;13.016;2023-06-24T13:25:00;4.63;;;2.47;;
419;SDS011;42600;54.408;13.016;2023-06-24T13:27:28;4.07;;;2.47;;
419;SDS011;42600;54.408;13.016;2023-06-24T13:29:55;3.23;;;1.50;;
419;SDS011;42600;54.408;13.016;2023-06-24T13:32:22;7.63;;;2.57;;
419;SDS011;42600;54.408;13.016;2023-06-24T13:34:48;2.50;;;1.40;;
419;SDS011;42600;54.408;13.016;2023-06-24T13:37:15;4.17;;;2.00;;
419;SDS011;42600;54.408;13.016;2023-06-24T13:39:42;5.77;;;1.93;;
419;SDS011;42600;54.408;13.016;2023-06-24T13:42:09;3.90;;;1.70;;
419;SDS011;42600;54.408;13.016;2023-06-24T13:44:37;2.63;;;1.70;;
419;SDS011;42600;54.408;13.016;2023-06-24T13:47:04;3.33;;;1.87;;
419;SDS011;42600;54.408;13.016;2023-06-24T13:49:31;3.53;;;1.60;;
419;SDS011;42600;54.408;13.016;2023-06-24T13:51:57;3.57;;;1.60;;
419;SDS011;42600;54.408;13.016;2023-06-24T13:54:24;3.13;;;1.90;;
419;SDS011;42600;54.408;13.016;2023-06-24T13:56:52;3.43;;;1.30;;
419;SDS011;42600;54.408;13.016;2023-06-24T13:59:19;5.73;;;2.20;;
419;SDS011;42600;54.408;13.016;2023-06-24T14:01:46;4.53;;;1.87;;
419;SDS011;42600;54.408;13.016;2023-06-24T14:04:13;3.70;;;1.80;;
419;SDS011;42600;54.408;13.016;2023-06-24T14:06:40;3.63;;;1.50;;
419;SDS011;42600;54.408;13.016;2023-06-24T14:09:08;5.30;;;1.60;;
419;SDS011;42600;54.408;13.016;2023-06-24T14:11:34;3.77;;;1.60;;
419;SDS011;42600;54.408;13.016;2023-06-24T14:14:01;5.27;;;1.50;;
419;SDS011;42600;54.408;13.016;2023-06-24T14:16:27;3.70;;;1.80;;
419;SDS011;42600;54.408;13.016;2023-06-24T14:18:55;3.27;;;2.37;;
419;SDS011;42600;54.408;13.016;2023-06-24T14:21:22;3.80;;;1.80;;
419;SDS011;42600;54.408;13.016;2023-06-24T14:23:49;2.73;;;1.57;;
419;SDS011;42600;54.408;13.016;2023-06-24T14:26:15;3.10;;;1.73;;
419;SDS011;42600;54.408;13.016;2023-06-24T14:28:42;4.60;;;1.57;;
419;SDS011;42600;54.408;13.016;2023-06-24T14:31:09;3.53;;;2.03;;
419;SDS011;42600;54.408;13.016;2023-06-24T14:33:35;2.83;;;1.60;;
419;SDS011;42600;54.408;13.016;2023-06-24T14:36:03;4.43;;;2.00;;
419;SDS011;42600;54.408;13.016;2023-06-24T14:38:30;3.20;;;1.83;;
419;SDS011;42600;54.408;13.016;2023-06-24T14:40:56;5.40;;;2.30;;
419;SDS011;42600;54.408;13.016;2023-06-24T14:43:23;3.60;;;2.13;;
419;SDS011;42600;54.408;13.016;2023-06-24T14:45:49;4.77;;;2.00;;
419;SDS011;42600;54.408;13.016;2023-06-24T14:48:16;3.20;;;1.43;;
419;SDS011;42600;54.408;13.016;2023-06-24T14:50:43;6.03;;;2.23;;
419;SDS011;42600;54.408;13.016;2023-06-24T14:53:10;2.80;;;1.20;;
419;SDS011;42600;54.408;13.016;2023-06-24T14:55:37;2.60;;;1.30;;
419;SDS011;42600;54.408;13.016;2023-06-24T14:58:11;2.70;;;1.60;;
419;SDS011;42600;54.408;13.016;2023-06-24T15:00:38;3.63;;;2.03;;
419;SDS011;42600;54.408;13.016;2023-06-24T15:03:05;11.93;;;2.10;;
419;SDS011;42600;54.408;13.016;2023-06-24T15:05:32;3.37;;;1.80;;
419;SDS011;42600;54.408;13.016;2023-06-24T15:07:59;3.30;;;1.53;;